In Rescue
 
Open Full Screen Window  High Contrast Mode
Wind Gusting 00 knots
09
March 20, 2019 8:40 PM CDT
Present Weather: Mist
Weather Information
Wind Direction
  320 °
Wind Speed
  09 kt (10 mph)
Wind Gust
  00 kt (0 mph)
Altimeter
30.15 in
Visibility
5 SM
Temperature
02° C
36° F
Dewpoint
00° C
32° F
Humidity
87%
1hr Rain Fall
00.00 in.
24hr Rain Fall
00.00 in.
Sky Condition
Clear
MVFR

METAR KGDB 210140Z AUTO 32009KT 5SM BR CLR 02/00 A3015 RMK AO2 T00151001

FAA Disclaimer: The data displayed is for advisory purposes only and is not to be used for flight planning or operations.